Tamrey S — TCA4286 — position and weather

sailwx.info

Track history (hours):
 
Tides and Currents Weather Stations Pressure Air Temp Water Temp Dewpoint Dewpoint Depression Visibility Wind Speed Wind Dir Waves Ship Positions

Tamrey S

Last reported at 2018-Sep-22 23:11 UTC. Time now 2018-Sep-23 04:14 UTC.
Position N 41°49' E 030°23'.

Length 176 m; draft 10.2 m.

Type: Cargo ship. MMSI: 271044600.

Date/timePositionNaut miles runAvg speedWind from/ knotsBaromVisibWave heightAir tempDewpointWater temp
2018-Sep-22 23:11N 41°49' E 030°23'110.5
2018-Sep-22 23:03N 41°49' E 030°25'110.4
2018-Sep-22 23:00N 41°50' E 030°26'3 5.3
2018-Sep-22 22:30N 41°52' E 030°26'2 4.6
2018-Sep-22 22:02N 41°51' E 030°28'0 9.7
2018-Sep-22 22:00N 41°51' E 030°28'5 6.9
2018-Sep-22 21:17N 41°54' E 030°23'1810.6
2018-Sep-22 19:35N 42°05' E 030°43'110.8
2018-Sep-22 19:30N 42°05' E 030°44'510.9
2018-Sep-22 19:03N 42°08' E 030°50'111.0
2018-Sep-22 19:00N 42°08' E 030°50'611.1
2018-Sep-22 18:30N 42°11' E 030°56'511.1
2018-Sep-22 18:03N 42°14' E 031°02'011.1
2018-Sep-22 18:00N 42°14' E 031°03'611.2
2018-Sep-22 17:30N 42°17' E 031°09'511.4
2018-Sep-22 17:03N 42°20' E 031°15'111.4
2018-Sep-22 17:00N 42°21' E 031°15'611.3
2018-Sep-22 16:27N 42°24' E 031°22'711.4
2018-Sep-22 15:52N 42°28' E 031°30'411.2
2018-Sep-22 15:30N 42°30' E 031°35'511.1
2018-Sep-22 15:03N 42°32' E 031°41'111.1
2018-Sep-22 14:58N 42°33' E 031°42'511.0
2018-Sep-22 14:30N 42°36' E 031°48'3810.9
2018-Sep-22 11:02N 42°56' E 032°31'010.9
2018-Sep-22 11:00N 42°56' E 032°32'510.9
2018-Sep-22 10:30N 42°59' E 032°38'510.9
2018-Sep-22 10:03N 43°01' E 032°44'111.0
2018-Sep-22 10:00N 43°01' E 032°44'  
Track history (hours):
 
Tides and Currents Weather Stations Pressure Air Temp Water Temp Dewpoint Dewpoint Depression Visibility Wind Speed Wind Dir Waves Ship Positions

Tamrey S

Last reported at 2018-Sep-22 23:11 UTC. Time now 2018-Sep-23 04:14 UTC.
Position N 41°49' E 030°23'.

Length 176 m; draft 10.2 m.

Type: Cargo ship. MMSI: 271044600.

Date/timePositionNaut miles runAvg speedWind from/ knotsBaromVisibWave heightAir tempDewpointWater temp
2018-Sep-22 23:11N 41°49' E 030°23'110.5
2018-Sep-22 23:03N 41°49' E 030°25'110.4
2018-Sep-22 23:00N 41°50' E 030°26'3 5.3
2018-Sep-22 22:30N 41°52' E 030°26'2 4.6
2018-Sep-22 22:02N 41°51' E 030°28'0 9.7
2018-Sep-22 22:00N 41°51' E 030°28'5 6.9
2018-Sep-22 21:17N 41°54' E 030°23'1810.6
2018-Sep-22 19:35N 42°05' E 030°43'110.8
2018-Sep-22 19:30N 42°05' E 030°44'510.9
2018-Sep-22 19:03N 42°08' E 030°50'111.0
2018-Sep-22 19:00N 42°08' E 030°50'611.1
2018-Sep-22 18:30N 42°11' E 030°56'511.1
2018-Sep-22 18:03N 42°14' E 031°02'011.1
2018-Sep-22 18:00N 42°14' E 031°03'611.2
2018-Sep-22 17:30N 42°17' E 031°09'511.4
2018-Sep-22 17:03N 42°20' E 031°15'111.4
2018-Sep-22 17:00N 42°21' E 031°15'611.3
2018-Sep-22 16:27N 42°24' E 031°22'711.4
2018-Sep-22 15:52N 42°28' E 031°30'411.2
2018-Sep-22 15:30N 42°30' E 031°35'511.1
2018-Sep-22 15:03N 42°32' E 031°41'111.1
2018-Sep-22 14:58N 42°33' E 031°42'511.0
2018-Sep-22 14:30N 42°36' E 031°48'3810.9
2018-Sep-22 11:02N 42°56' E 032°31'010.9
2018-Sep-22 11:00N 42°56' E 032°32'510.9
2018-Sep-22 10:30N 42°59' E 032°38'510.9
2018-Sep-22 10:03N 43°01' E 032°44'111.0
2018-Sep-22 10:00N 43°01' E 032°44'  

Dump ship's entire track history